sensor_id;sensor_type;location;lat;lon;timestamp;temperature;humidity
5086;DHT22;4715;51.660;7.082;2023-03-08T00:00:07;1.40;99.90
5086;DHT22;4715;51.660;7.082;2023-03-08T00:02:30;1.40;99.90
5086;DHT22;4715;51.660;7.082;2023-03-08T00:04:53;1.40;99.90
5086;DHT22;4715;51.660;7.082;2023-03-08T00:07:15;1.40;99.90
5086;DHT22;4715;51.660;7.082;2023-03-08T00:09:37;1.40;99.90
5086;DHT22;4715;51.660;7.082;2023-03-08T00:11:59;1.50;99.90
5086;DHT22;4715;51.660;7.082;2023-03-08T00:14:22;1.50;99.90
5086;DHT22;4715;51.660;7.082;2023-03-08T00:16:44;1.50;99.90
5086;DHT22;4715;51.660;7.082;2023-03-08T00:19:06;1.50;99.90
5086;DHT22;4715;51.660;7.082;2023-03-08T00:21:27;1.50;99.90
5086;DHT22;4715;51.660;7.082;2023-03-08T00:23:51;1.50;99.90
5086;DHT22;4715;51.660;7.082;2023-03-08T00:26:13;1.60;99.90
5086;DHT22;4715;51.660;7.082;2023-03-08T00:28:35;1.50;99.90
5086;DHT22;4715;51.660;7.082;2023-03-08T00:30:59;1.50;99.90
5086;DHT22;4715;51.660;7.082;2023-03-08T00:33:22;1.50;99.90
5086;DHT22;4715;51.660;7.082;2023-03-08T00:35:43;1.50;99.90
5086;DHT22;4715;51.660;7.082;2023-03-08T00:38:14;1.50;99.90
5086;DHT22;4715;51.660;7.082;2023-03-08T00:40:36;1.50;99.90
5086;DHT22;4715;51.660;7.082;2023-03-08T00:42:57;1.50;99.90
5086;DHT22;4715;51.660;7.082;2023-03-08T00:45:19;1.50;99.90
5086;DHT22;4715;51.660;7.082;2023-03-08T00:47:43;1.50;99.90
5086;DHT22;4715;51.660;7.082;2023-03-08T00:50:06;1.50;99.90
5086;DHT22;4715;51.660;7.082;2023-03-08T00:52:28;1.60;99.90
5086;DHT22;4715;51.660;7.082;2023-03-08T00:54:50;1.50;99.90
5086;DHT22;4715;51.660;7.082;2023-03-08T00:57:11;1.50;99.90
5086;DHT22;4715;51.660;7.082;2023-03-08T00:59:33;1.50;99.90
5086;DHT22;4715;51.660;7.082;2023-03-08T01:01:55;1.60;99.90
5086;DHT22;4715;51.660;7.082;2023-03-08T01:04:19;1.50;99.90
5086;DHT22;4715;51.660;7.082;2023-03-08T01:06:41;1.50;99.90
5086;DHT22;4715;51.660;7.082;2023-03-08T01:09:03;1.50;99.90
5086;DHT22;4715;51.660;7.082;2023-03-08T01:11:26;1.50;99.90
5086;DHT22;4715;51.660;7.082;2023-03-08T01:13:49;1.50;99.90
5086;DHT22;4715;51.660;7.082;2023-03-08T01:16:15;1.50;99.90
5086;DHT22;4715;51.660;7.082;2023-03-08T01:18:37;1.50;99.90
5086;DHT22;4715;51.660;7.082;2023-03-08T01:21:02;1.50;99.90
5086;DHT22;4715;51.660;7.082;2023-03-08T01:23:25;1.50;99.90
5086;DHT22;4715;51.660;7.082;2023-03-08T01:25:46;1.50;99.90
5086;DHT22;4715;51.660;7.082;2023-03-08T01:28:08;1.50;99.90
5086;DHT22;4715;51.660;7.082;2023-03-08T01:30:30;1.50;99.90
5086;DHT22;4715;51.660;7.082;2023-03-08T01:32:52;1.50;99.90
5086;DHT22;4715;51.660;7.082;2023-03-08T01:35:14;1.50;99.90
5086;DHT22;4715;51.660;7.082;2023-03-08T01:37:37;1.50;99.90
5086;DHT22;4715;51.660;7.082;2023-03-08T01:39:59;1.50;99.90
5086;DHT22;4715;51.660;7.082;2023-03-08T01:42:21;1.50;99.90
5086;DHT22;4715;51.660;7.082;2023-03-08T01:44:54;1.50;99.90
5086;DHT22;4715;51.660;7.082;2023-03-08T01:47:18;1.50;99.90
5086;DHT22;4715;51.660;7.082;2023-03-08T01:49:40;1.50;99.90
5086;DHT22;4715;51.660;7.082;2023-03-08T01:52:05;1.50;99.90
5086;DHT22;4715;51.660;7.082;2023-03-08T01:54:33;1.50;99.90
5086;DHT22;4715;51.660;7.082;2023-03-08T01:56:59;1.50;99.90
5086;DHT22;4715;51.660;7.082;2023-03-08T01:59:22;1.50;99.90
5086;DHT22;4715;51.660;7.082;2023-03-08T02:01:44;1.50;99.90
5086;DHT22;4715;51.660;7.082;2023-03-08T02:04:07;1.50;99.90
5086;DHT22;4715;51.660;7.082;2023-03-08T02:06:29;1.50;99.90
5086;DHT22;4715;51.660;7.082;2023-03-08T02:08:51;1.50;99.90
5086;DHT22;4715;51.660;7.082;2023-03-08T02:11:16;1.50;99.90
5086;DHT22;4715;51.660;7.082;2023-03-08T02:13:39;1.50;99.90
5086;DHT22;4715;51.660;7.082;2023-03-08T02:16:04;1.50;99.90
5086;DHT22;4715;51.660;7.082;2023-03-08T02:18:26;1.40;99.90
5086;DHT22;4715;51.660;7.082;2023-03-08T02:20:49;1.50;99.90
5086;DHT22;4715;51.660;7.082;2023-03-08T02:23:16;1.40;99.90
5086;DHT22;4715;51.660;7.082;2023-03-08T02:25:39;1.40;99.90
5086;DHT22;4715;51.660;7.082;2023-03-08T02:28:01;1.40;99.90
5086;DHT22;4715;51.660;7.082;2023-03-08T02:30:25;1.40;99.90
5086;DHT22;4715;51.660;7.082;2023-03-08T02:32:47;1.40;99.90
5086;DHT22;4715;51.660;7.082;2023-03-08T02:35:09;1.40;99.90
5086;DHT22;4715;51.660;7.082;2023-03-08T02:37:31;1.40;99.90
5086;DHT22;4715;51.660;7.082;2023-03-08T02:39:55;1.40;99.90
5086;DHT22;4715;51.660;7.082;2023-03-08T02:42:16;1.50;99.90
5086;DHT22;4715;51.660;7.082;2023-03-08T02:44:38;1.50;99.90
5086;DHT22;4715;51.660;7.082;2023-03-08T02:47:00;1.50;99.90
5086;DHT22;4715;51.660;7.082;2023-03-08T02:49:22;1.50;99.90
5086;DHT22;4715;51.660;7.082;2023-03-08T02:51:44;1.60;99.90
5086;DHT22;4715;51.660;7.082;2023-03-08T02:54:05;1.60;99.90
5086;DHT22;4715;51.660;7.082;2023-03-08T02:56:28;1.70;99.90
5086;DHT22;4715;51.660;7.082;2023-03-08T02:58:50;1.70;99.90
5086;DHT22;4715;51.660;7.082;2023-03-08T03:01:13;1.70;99.90
5086;DHT22;4715;51.660;7.082;2023-03-08T03:03:35;1.60;99.90
5086;DHT22;4715;51.660;7.082;2023-03-08T03:05:57;1.60;99.90
5086;DHT22;4715;51.660;7.082;2023-03-08T03:08:18;1.60;99.90
5086;DHT22;4715;51.660;7.082;2023-03-08T03:10:40;1.60;99.90
5086;DHT22;4715;51.660;7.082;2023-03-08T03:13:04;1.60;99.90
5086;DHT22;4715;51.660;7.082;2023-03-08T03:15:26;1.60;99.90
5086;DHT22;4715;51.660;7.082;2023-03-08T03:17:48;1.60;99.90
5086;DHT22;4715;51.660;7.082;2023-03-08T03:20:11;1.60;99.90
5086;DHT22;4715;51.660;7.082;2023-03-08T03:22:34;1.70;99.90
5086;DHT22;4715;51.660;7.082;2023-03-08T03:24:56;1.70;99.90
5086;DHT22;4715;51.660;7.082;2023-03-08T03:27:18;1.70;99.90
5086;DHT22;4715;51.660;7.082;2023-03-08T03:29:41;1.70;99.90
5086;DHT22;4715;51.660;7.082;2023-03-08T03:32:03;1.80;99.90
5086;DHT22;4715;51.660;7.082;2023-03-08T03:34:25;1.80;99.90
5086;DHT22;4715;51.660;7.082;2023-03-08T03:36:47;1.90;99.90
5086;DHT22;4715;51.660;7.082;2023-03-08T03:39:09;1.90;99.90
5086;DHT22;4715;51.660;7.082;2023-03-08T03:41:32;1.90;99.90
5086;DHT22;4715;51.660;7.082;2023-03-08T03:43:57;1.90;99.90
5086;DHT22;4715;51.660;7.082;2023-03-08T03:46:20;1.90;99.90
5086;DHT22;4715;51.660;7.082;2023-03-08T03:48:43;1.90;99.90
5086;DHT22;4715;51.660;7.082;2023-03-08T03:51:08;1.90;99.90
5086;DHT22;4715;51.660;7.082;2023-03-08T03:53:31;1.90;99.90
5086;DHT22;4715;51.660;7.082;2023-03-08T03:55:54;2.00;99.90
5086;DHT22;4715;51.660;7.082;2023-03-08T03:58:16;2.00;99.90
5086;DHT22;4715;51.660;7.082;2023-03-08T04:00:37;2.00;99.90
5086;DHT22;4715;51.660;7.082;2023-03-08T04:03:00;2.00;99.90
5086;DHT22;4715;51.660;7.082;2023-03-08T04:05:22;2.00;99.90
5086;DHT22;4715;51.660;7.082;2023-03-08T04:07:44;2.10;99.90
5086;DHT22;4715;51.660;7.082;2023-03-08T04:10:06;2.10;99.90
5086;DHT22;4715;51.660;7.082;2023-03-08T04:12:28;2.20;99.90
5086;DHT22;4715;51.660;7.082;2023-03-08T04:14:52;2.20;99.90
5086;DHT22;4715;51.660;7.082;2023-03-08T04:17:14;2.20;99.90
5086;DHT22;4715;51.660;7.082;2023-03-08T04:19:37;2.20;99.90
5086;DHT22;4715;51.660;7.082;2023-03-08T04:21:59;2.20;99.90
5086;DHT22;4715;51.660;7.082;2023-03-08T04:24:21;2.30;99.90
5086;DHT22;4715;51.660;7.082;2023-03-08T04:26:43;2.30;99.90
5086;DHT22;4715;51.660;7.082;2023-03-08T04:29:05;2.30;99.90
5086;DHT22;4715;51.660;7.082;2023-03-08T04:31:28;2.30;99.90
5086;DHT22;4715;51.660;7.082;2023-03-08T04:33:50;2.30;99.90
5086;DHT22;4715;51.660;7.082;2023-03-08T04:36:14;2.40;99.90
5086;DHT22;4715;51.660;7.082;2023-03-08T04:38:36;2.40;99.90
5086;DHT22;4715;51.660;7.082;2023-03-08T04:40:58;2.40;99.90
5086;DHT22;4715;51.660;7.082;2023-03-08T04:43:24;2.40;99.90
5086;DHT22;4715;51.660;7.082;2023-03-08T04:45:46;2.40;99.90
5086;DHT22;4715;51.660;7.082;2023-03-08T04:48:08;2.40;99.90
5086;DHT22;4715;51.660;7.082;2023-03-08T04:50:30;2.40;99.90
5086;DHT22;4715;51.660;7.082;2023-03-08T04:52:53;2.40;99.90
5086;DHT22;4715;51.660;7.082;2023-03-08T04:55:15;2.40;99.90
5086;DHT22;4715;51.660;7.082;2023-03-08T04:57:36;2.40;99.90
5086;DHT22;4715;51.660;7.082;2023-03-08T04:59:58;2.40;99.90
5086;DHT22;4715;51.660;7.082;2023-03-08T05:02:21;2.40;99.90
5086;DHT22;4715;51.660;7.082;2023-03-08T05:04:43;2.40;99.90
5086;DHT22;4715;51.660;7.082;2023-03-08T05:07:05;2.40;99.90
5086;DHT22;4715;51.660;7.082;2023-03-08T05:09:28;2.40;99.90
5086;DHT22;4715;51.660;7.082;2023-03-08T05:11:49;2.40;99.90
5086;DHT22;4715;51.660;7.082;2023-03-08T05:14:11;2.40;99.90
5086;DHT22;4715;51.660;7.082;2023-03-08T05:16:33;2.40;99.90
5086;DHT22;4715;51.660;7.082;2023-03-08T05:18:55;2.40;99.90
5086;DHT22;4715;51.660;7.082;2023-03-08T05:21:18;2.40;99.90
5086;DHT22;4715;51.660;7.082;2023-03-08T05:23:40;2.40;99.90
5086;DHT22;4715;51.660;7.082;2023-03-08T05:26:05;2.40;99.90
5086;DHT22;4715;51.660;7.082;2023-03-08T05:28:29;2.40;99.90
5086;DHT22;4715;51.660;7.082;2023-03-08T05:30:59;2.50;99.90
5086;DHT22;4715;51.660;7.082;2023-03-08T05:33:21;2.50;99.90
5086;DHT22;4715;51.660;7.082;2023-03-08T05:35:51;2.40;99.90
5086;DHT22;4715;51.660;7.082;2023-03-08T05:38:14;2.50;99.90
5086;DHT22;4715;51.660;7.082;2023-03-08T05:40:37;2.40;99.90
5086;DHT22;4715;51.660;7.082;2023-03-08T05:43:00;2.40;99.90
5086;DHT22;4715;51.660;7.082;2023-03-08T05:45:22;2.80;99.90
5086;DHT22;4715;51.660;7.082;2023-03-08T05:47:45;2.70;99.90
5086;DHT22;4715;51.660;7.082;2023-03-08T05:50:08;2.70;99.90
5086;DHT22;4715;51.660;7.082;2023-03-08T05:52:29;2.60;99.90
5086;DHT22;4715;51.660;7.082;2023-03-08T05:54:52;2.60;99.90
5086;DHT22;4715;51.660;7.082;2023-03-08T05:57:13;2.60;99.90
5086;DHT22;4715;51.660;7.082;2023-03-08T05:59:37;2.50;99.90
5086;DHT22;4715;51.660;7.082;2023-03-08T06:01:58;2.50;99.90
5086;DHT22;4715;51.660;7.082;2023-03-08T06:04:20;2.50;99.90
5086;DHT22;4715;51.660;7.082;2023-03-08T06:06:42;2.50;99.90
5086;DHT22;4715;51.660;7.082;2023-03-08T06:09:04;2.50;99.90
5086;DHT22;4715;51.660;7.082;2023-03-08T06:11:26;2.60;99.90
5086;DHT22;4715;51.660;7.082;2023-03-08T06:13:48;2.60;99.90
5086;DHT22;4715;51.660;7.082;2023-03-08T06:16:12;2.60;99.90
5086;DHT22;4715;51.660;7.082;2023-03-08T06:18:36;2.60;99.90
5086;DHT22;4715;51.660;7.082;2023-03-08T06:20:59;2.50;99.90
5086;DHT22;4715;51.660;7.082;2023-03-08T06:23:21;2.50;99.90
5086;DHT22;4715;51.660;7.082;2023-03-08T06:25:45;2.50;99.90
5086;DHT22;4715;51.660;7.082;2023-03-08T06:28:09;2.50;99.90
5086;DHT22;4715;51.660;7.082;2023-03-08T06:30:31;2.50;99.90
5086;DHT22;4715;51.660;7.082;2023-03-08T06:32:57;2.50;99.90
5086;DHT22;4715;51.660;7.082;2023-03-08T06:35:18;2.60;99.90
5086;DHT22;4715;51.660;7.082;2023-03-08T06:37:40;2.60;99.90
5086;DHT22;4715;51.660;7.082;2023-03-08T06:40:02;2.60;99.90
5086;DHT22;4715;51.660;7.082;2023-03-08T06:42:25;2.60;99.90
5086;DHT22;4715;51.660;7.082;2023-03-08T06:44:47;2.60;99.90
5086;DHT22;4715;51.660;7.082;2023-03-08T06:47:08;2.60;99.90
5086;DHT22;4715;51.660;7.082;2023-03-08T06:49:32;2.60;99.90
5086;DHT22;4715;51.660;7.082;2023-03-08T06:51:54;2.70;99.90
5086;DHT22;4715;51.660;7.082;2023-03-08T06:54:16;2.70;99.90
5086;DHT22;4715;51.660;7.082;2023-03-08T06:56:38;2.70;99.90
5086;DHT22;4715;51.660;7.082;2023-03-08T06:58:59;2.70;99.90
5086;DHT22;4715;51.660;7.082;2023-03-08T07:01:21;2.70;99.90
5086;DHT22;4715;51.660;7.082;2023-03-08T07:03:43;2.70;99.90
5086;DHT22;4715;51.660;7.082;2023-03-08T07:06:09;2.70;99.90
5086;DHT22;4715;51.660;7.082;2023-03-08T07:08:31;2.60;99.90
5086;DHT22;4715;51.660;7.082;2023-03-08T07:10:54;2.60;99.90
5086;DHT22;4715;51.660;7.082;2023-03-08T07:13:16;2.60;99.90
5086;DHT22;4715;51.660;7.082;2023-03-08T07:15:38;2.60;99.90
5086;DHT22;4715;51.660;7.082;2023-03-08T07:18:01;2.60;99.90
5086;DHT22;4715;51.660;7.082;2023-03-08T07:20:24;2.50;99.90
5086;DHT22;4715;51.660;7.082;2023-03-08T07:22:48;2.50;99.90
5086;DHT22;4715;51.660;7.082;2023-03-08T07:25:11;2.40;99.90
5086;DHT22;4715;51.660;7.082;2023-03-08T07:27:33;2.40;99.90
5086;DHT22;4715;51.660;7.082;2023-03-08T07:29:54;2.40;99.90
5086;DHT22;4715;51.660;7.082;2023-03-08T07:32:17;2.40;99.90
5086;DHT22;4715;51.660;7.082;2023-03-08T07:34:39;2.40;99.90
5086;DHT22;4715;51.660;7.082;2023-03-08T07:37:01;2.40;99.90
5086;DHT22;4715;51.660;7.082;2023-03-08T07:39:24;2.40;99.90
5086;DHT22;4715;51.660;7.082;2023-03-08T07:41:46;2.40;99.90
5086;DHT22;4715;51.660;7.082;2023-03-08T07:44:07;2.40;99.90
5086;DHT22;4715;51.660;7.082;2023-03-08T07:46:29;2.40;99.90
5086;DHT22;4715;51.660;7.082;2023-03-08T07:48:51;2.40;99.90
5086;DHT22;4715;51.660;7.082;2023-03-08T07:51:14;2.30;99.90
5086;DHT22;4715;51.660;7.082;2023-03-08T07:53:36;2.40;99.90
5086;DHT22;4715;51.660;7.082;2023-03-08T07:55:59;2.30;99.90
5086;DHT22;4715;51.660;7.082;2023-03-08T07:58:21;2.30;99.90
5086;DHT22;4715;51.660;7.082;2023-03-08T08:00:43;2.30;99.90
5086;DHT22;4715;51.660;7.082;2023-03-08T08:03:05;2.30;99.90
5086;DHT22;4715;51.660;7.082;2023-03-08T08:05:26;2.30;99.90
5086;DHT22;4715;51.660;7.082;2023-03-08T08:07:49;2.30;99.90
5086;DHT22;4715;51.660;7.082;2023-03-08T08:10:10;2.30;99.90
5086;DHT22;4715;51.660;7.082;2023-03-08T08:12:34;2.30;99.90
5086;DHT22;4715;51.660;7.082;2023-03-08T08:14:56;2.30;99.90
5086;DHT22;4715;51.660;7.082;2023-03-08T08:17:19;2.20;99.90
5086;DHT22;4715;51.660;7.082;2023-03-08T08:19:41;2.20;99.90
5086;DHT22;4715;51.660;7.082;2023-03-08T08:22:04;2.20;99.90
5086;DHT22;4715;51.660;7.082;2023-03-08T08:24:26;2.20;99.90
5086;DHT22;4715;51.660;7.082;2023-03-08T08:26:48;2.20;99.90
5086;DHT22;4715;51.660;7.082;2023-03-08T08:29:13;2.20;99.90
5086;DHT22;4715;51.660;7.082;2023-03-08T08:31:35;2.20;99.90
5086;DHT22;4715;51.660;7.082;2023-03-08T08:33:57;2.20;99.90
5086;DHT22;4715;51.660;7.082;2023-03-08T08:36:20;2.20;99.90
5086;DHT22;4715;51.660;7.082;2023-03-08T08:38:42;2.20;99.90
5086;DHT22;4715;51.660;7.082;2023-03-08T08:41:06;2.10;99.90
5086;DHT22;4715;51.660;7.082;2023-03-08T08:43:29;2.10;99.90
5086;DHT22;4715;51.660;7.082;2023-03-08T08:45:55;2.10;99.90
5086;DHT22;4715;51.660;7.082;2023-03-08T08:48:17;2.10;99.90
5086;DHT22;4715;51.660;7.082;2023-03-08T08:50:39;2.10;99.90
5086;DHT22;4715;51.660;7.082;2023-03-08T08:53:01;2.10;99.90
5086;DHT22;4715;51.660;7.082;2023-03-08T08:55:23;2.10;99.90
5086;DHT22;4715;51.660;7.082;2023-03-08T08:57:45;2.10;99.90
5086;DHT22;4715;51.660;7.082;2023-03-08T09:00:10;2.10;99.90
5086;DHT22;4715;51.660;7.082;2023-03-08T09:02:33;2.10;99.90
5086;DHT22;4715;51.660;7.082;2023-03-08T09:04:55;2.10;99.90
5086;DHT22;4715;51.660;7.082;2023-03-08T09:07:17;2.10;99.90
5086;DHT22;4715;51.660;7.082;2023-03-08T09:09:40;2.10;99.90
5086;DHT22;4715;51.660;7.082;2023-03-08T09:12:03;2.20;99.90
5086;DHT22;4715;51.660;7.082;2023-03-08T09:14:25;2.10;99.90
5086;DHT22;4715;51.660;7.082;2023-03-08T09:16:47;2.10;99.90
5086;DHT22;4715;51.660;7.082;2023-03-08T09:19:11;2.10;99.90
5086;DHT22;4715;51.660;7.082;2023-03-08T09:21:33;2.10;99.90
5086;DHT22;4715;51.660;7.082;2023-03-08T09:23:57;2.00;99.90
5086;DHT22;4715;51.660;7.082;2023-03-08T09:26:19;2.00;99.90
5086;DHT22;4715;51.660;7.082;2023-03-08T09:28:41;2.00;99.90
5086;DHT22;4715;51.660;7.082;2023-03-08T09:31:06;1.90;99.90
5086;DHT22;4715;51.660;7.082;2023-03-08T09:33:31;1.90;99.90
5086;DHT22;4715;51.660;7.082;2023-03-08T09:35:57;1.90;99.90
5086;DHT22;4715;51.660;7.082;2023-03-08T09:38:20;2.00;99.90
5086;DHT22;4715;51.660;7.082;2023-03-08T09:40:48;2.00;99.90
5086;DHT22;4715;51.660;7.082;2023-03-08T09:43:20;2.00;99.90
5086;DHT22;4715;51.660;7.082;2023-03-08T09:45:51;2.00;99.90
5086;DHT22;4715;51.660;7.082;2023-03-08T09:48:18;1.90;99.90
5086;DHT22;4715;51.660;7.082;2023-03-08T09:50:44;1.90;99.90
5086;DHT22;4715;51.660;7.082;2023-03-08T09:53:16;1.90;99.90
5086;DHT22;4715;51.660;7.082;2023-03-08T09:55:44;1.90;99.90
5086;DHT22;4715;51.660;7.082;2023-03-08T09:58:15;1.90;99.90
5086;DHT22;4715;51.660;7.082;2023-03-08T10:00:38;2.00;99.90
5086;DHT22;4715;51.660;7.082;2023-03-08T10:03:16;2.00;99.90
5086;DHT22;4715;51.660;7.082;2023-03-08T10:05:46;2.00;99.90
5086;DHT22;4715;51.660;7.082;2023-03-08T10:08:13;2.00;99.90
5086;DHT22;4715;51.660;7.082;2023-03-08T10:10:42;2.00;99.90
5086;DHT22;4715;51.660;7.082;2023-03-08T10:13:29;2.00;99.90
5086;DHT22;4715;51.660;7.082;2023-03-08T10:15:55;2.00;99.90
5086;DHT22;4715;51.660;7.082;2023-03-08T10:18:25;2.00;99.90
5086;DHT22;4715;51.660;7.082;2023-03-08T10:20:49;2.00;99.90
5086;DHT22;4715;51.660;7.082;2023-03-08T10:23:15;2.00;99.90
5086;DHT22;4715;51.660;7.082;2023-03-08T10:25:37;2.00;99.90
5086;DHT22;4715;51.660;7.082;2023-03-08T10:28:01;2.00;99.90
5086;DHT22;4715;51.660;7.082;2023-03-08T10:30:26;2.10;99.90
5086;DHT22;4715;51.660;7.082;2023-03-08T10:32:50;2.10;99.90
5086;DHT22;4715;51.660;7.082;2023-03-08T10:35:11;2.10;99.90
5086;DHT22;4715;51.660;7.082;2023-03-08T10:37:34;2.10;99.90
5086;DHT22;4715;51.660;7.082;2023-03-08T10:40:00;2.10;99.90
5086;DHT22;4715;51.660;7.082;2023-03-08T10:42:26;2.20;99.90
5086;DHT22;4715;51.660;7.082;2023-03-08T10:44:54;2.10;99.90
5086;DHT22;4715;51.660;7.082;2023-03-08T10:47:19;2.20;99.90
5086;DHT22;4715;51.660;7.082;2023-03-08T10:49:42;2.20;99.90
5086;DHT22;4715;51.660;7.082;2023-03-08T10:52:04;2.20;99.90
5086;DHT22;4715;51.660;7.082;2023-03-08T10:54:27;2.20;99.90
5086;DHT22;4715;51.660;7.082;2023-03-08T10:56:57;2.10;99.90
5086;DHT22;4715;51.660;7.082;2023-03-08T10:59:21;2.10;99.90
5086;DHT22;4715;51.660;7.082;2023-03-08T11:01:50;2.10;99.90
5086;DHT22;4715;51.660;7.082;2023-03-08T11:04:14;2.20;99.90
5086;DHT22;4715;51.660;7.082;2023-03-08T11:06:36;2.30;99.90
5086;DHT22;4715;51.660;7.082;2023-03-08T11:08:59;2.30;99.90
5086;DHT22;4715;51.660;7.082;2023-03-08T11:11:22;2.30;99.90
5086;DHT22;4715;51.660;7.082;2023-03-08T11:13:46;2.40;99.90
5086;DHT22;4715;51.660;7.082;2023-03-08T11:19:21;2.40;99.90
5086;DHT22;4715;51.660;7.082;2023-03-08T11:21:52;2.40;99.90
5086;DHT22;4715;51.660;7.082;2023-03-08T11:24:23;2.50;99.90
5086;DHT22;4715;51.660;7.082;2023-03-08T11:26:58;2.50;99.90
5086;DHT22;4715;51.660;7.082;2023-03-08T11:29:40;2.60;99.90
5086;DHT22;4715;51.660;7.082;2023-03-08T11:32:15;2.60;99.90
5086;DHT22;4715;51.660;7.082;2023-03-08T11:35:01;2.60;99.90
5086;DHT22;4715;51.660;7.082;2023-03-08T11:37:30;2.50;99.90
5086;DHT22;4715;51.660;7.082;2023-03-08T11:40:02;2.50;99.90
5086;DHT22;4715;51.660;7.082;2023-03-08T11:42:32;2.50;99.90
5086;DHT22;4715;51.660;7.082;2023-03-08T11:45:11;2.50;99.90
5086;DHT22;4715;51.660;7.082;2023-03-08T11:50:26;2.40;99.90
5086;DHT22;4715;51.660;7.082;2023-03-08T11:52:58;2.40;99.90
5086;DHT22;4715;51.660;7.082;2023-03-08T11:55:38;2.40;99.90
5086;DHT22;4715;51.660;7.082;2023-03-08T11:58:08;2.40;99.90
5086;DHT22;4715;51.660;7.082;2023-03-08T12:00:36;2.40;99.90
5086;DHT22;4715;51.660;7.082;2023-03-08T12:03:04;2.40;99.90
5086;DHT22;4715;51.660;7.082;2023-03-08T12:05:28;2.40;99.90
5086;DHT22;4715;51.660;7.082;2023-03-08T12:07:53;2.30;99.90
5086;DHT22;4715;51.660;7.082;2023-03-08T12:10:20;2.30;99.90
5086;DHT22;4715;51.660;7.082;2023-03-08T12:12:45;2.30;99.90
5086;DHT22;4715;51.660;7.082;2023-03-08T12:15:18;2.30;99.90
5086;DHT22;4715;51.660;7.082;2023-03-08T12:17:48;2.30;99.90
5086;DHT22;4715;51.660;7.082;2023-03-08T12:20:13;2.30;99.90
5086;DHT22;4715;51.660;7.082;2023-03-08T12:22:44;2.30;99.90
5086;DHT22;4715;51.660;7.082;2023-03-08T12:25:11;2.40;99.90
5086;DHT22;4715;51.660;7.082;2023-03-08T12:27:41;2.40;99.90
5086;DHT22;4715;51.660;7.082;2023-03-08T12:30:15;2.30;99.90
5086;DHT22;4715;51.660;7.082;2023-03-08T12:32:39;2.40;99.90
5086;DHT22;4715;51.660;7.082;2023-03-08T12:35:06;2.40;99.90
5086;DHT22;4715;51.660;7.082;2023-03-08T12:37:42;2.40;99.90
5086;DHT22;4715;51.660;7.082;2023-03-08T12:40:25;2.40;99.90
5086;DHT22;4715;51.660;7.082;2023-03-08T12:42:48;2.40;99.90
5086;DHT22;4715;51.660;7.082;2023-03-08T12:45:27;2.40;99.90
5086;DHT22;4715;51.660;7.082;2023-03-08T12:48:06;2.40;99.90
5086;DHT22;4715;51.660;7.082;2023-03-08T12:50:40;2.40;99.90
5086;DHT22;4715;51.660;7.082;2023-03-08T12:53:18;2.50;99.90
5086;DHT22;4715;51.660;7.082;2023-03-08T12:55:42;2.60;99.90
5086;DHT22;4715;51.660;7.082;2023-03-08T12:58:15;2.60;99.90
5086;DHT22;4715;51.660;7.082;2023-03-08T13:00:38;2.60;99.90
5086;DHT22;4715;51.660;7.082;2023-03-08T13:03:03;2.60;99.90
5086;DHT22;4715;51.660;7.082;2023-03-08T13:05:35;2.60;99.90
5086;DHT22;4715;51.660;7.082;2023-03-08T13:08:18;2.60;99.90
5086;DHT22;4715;51.660;7.082;2023-03-08T13:10:57;2.60;99.90
5086;DHT22;4715;51.660;7.082;2023-03-08T13:13:24;2.60;99.90
5086;DHT22;4715;51.660;7.082;2023-03-08T13:15:48;2.60;99.90
5086;DHT22;4715;51.660;7.082;2023-03-08T13:18:15;2.50;99.90
5086;DHT22;4715;51.660;7.082;2023-03-08T13:21:02;2.60;99.90
5086;DHT22;4715;51.660;7.082;2023-03-08T13:23:30;2.60;99.90
5086;DHT22;4715;51.660;7.082;2023-03-08T13:26:11;2.70;99.90
5086;DHT22;4715;51.660;7.082;2023-03-08T13:28:37;2.70;99.90
5086;DHT22;4715;51.660;7.082;2023-03-08T13:31:01;2.70;99.90
5086;DHT22;4715;51.660;7.082;2023-03-08T13:33:25;2.80;99.90
5086;DHT22;4715;51.660;7.082;2023-03-08T13:35:54;2.80;99.90
5086;DHT22;4715;51.660;7.082;2023-03-08T13:38:20;2.80;99.90
5086;DHT22;4715;51.660;7.082;2023-03-08T13:40:49;2.70;99.90
5086;DHT22;4715;51.660;7.082;2023-03-08T13:43:15;2.70;99.90
5086;DHT22;4715;51.660;7.082;2023-03-08T13:45:37;2.70;99.90
5086;DHT22;4715;51.660;7.082;2023-03-08T13:48:05;2.70;99.90
5086;DHT22;4715;51.660;7.082;2023-03-08T13:50:30;2.70;99.90
5086;DHT22;4715;51.660;7.082;2023-03-08T13:52:52;2.70;99.90
5086;DHT22;4715;51.660;7.082;2023-03-08T13:55:19;2.70;99.90
5086;DHT22;4715;51.660;7.082;2023-03-08T13:57:48;2.70;99.90
5086;DHT22;4715;51.660;7.082;2023-03-08T14:00:27;2.70;99.90
5086;DHT22;4715;51.660;7.082;2023-03-08T14:02:51;2.80;99.90
5086;DHT22;4715;51.660;7.082;2023-03-08T14:05:15;2.80;99.90
5086;DHT22;4715;51.660;7.082;2023-03-08T14:07:38;2.80;99.90
5086;DHT22;4715;51.660;7.082;2023-03-08T14:10:05;2.90;99.90
5086;DHT22;4715;51.660;7.082;2023-03-08T14:12:37;2.90;99.90
5086;DHT22;4715;51.660;7.082;2023-03-08T14:15:01;3.00;99.90
5086;DHT22;4715;51.660;7.082;2023-03-08T14:17:26;3.00;99.90
5086;DHT22;4715;51.660;7.082;2023-03-08T14:19:53;3.00;99.90
5086;DHT22;4715;51.660;7.082;2023-03-08T14:22:17;3.10;99.90
5086;DHT22;4715;51.660;7.082;2023-03-08T14:24:41;3.10;99.90
5086;DHT22;4715;51.660;7.082;2023-03-08T14:27:06;3.20;99.90
5086;DHT22;4715;51.660;7.082;2023-03-08T14:29:46;3.10;99.90
5086;DHT22;4715;51.660;7.082;2023-03-08T14:32:28;3.20;99.90
5086;DHT22;4715;51.660;7.082;2023-03-08T14:34:50;3.20;99.90
5086;DHT22;4715;51.660;7.082;2023-03-08T14:37:18;3.10;99.90
5086;DHT22;4715;51.660;7.082;2023-03-08T14:39:43;3.10;99.90
5086;DHT22;4715;51.660;7.082;2023-03-08T14:42:14;3.10;99.90
5086;DHT22;4715;51.660;7.082;2023-03-08T14:44:37;3.10;99.90
5086;DHT22;4715;51.660;7.082;2023-03-08T14:47:09;3.00;99.90
5086;DHT22;4715;51.660;7.082;2023-03-08T14:49:35;3.00;99.90
5086;DHT22;4715;51.660;7.082;2023-03-08T14:51:57;3.00;99.90
5086;DHT22;4715;51.660;7.082;2023-03-08T14:54:31;3.00;99.90
5086;DHT22;4715;51.660;7.082;2023-03-08T14:57:17;3.00;99.90
5086;DHT22;4715;51.660;7.082;2023-03-08T14:59:42;3.00;99.90
5086;DHT22;4715;51.660;7.082;2023-03-08T15:02:09;3.00;99.90
5086;DHT22;4715;51.660;7.082;2023-03-08T15:04:33;3.00;99.90
5086;DHT22;4715;51.660;7.082;2023-03-08T15:06:55;3.00;99.90
5086;DHT22;4715;51.660;7.082;2023-03-08T15:09:20;3.00;99.90
5086;DHT22;4715;51.660;7.082;2023-03-08T15:11:44;3.00;99.90
5086;DHT22;4715;51.660;7.082;2023-03-08T15:14:08;3.00;99.90
5086;DHT22;4715;51.660;7.082;2023-03-08T15:16:30;2.90;99.90
5086;DHT22;4715;51.660;7.082;2023-03-08T15:18:53;2.90;99.90
5086;DHT22;4715;51.660;7.082;2023-03-08T15:21:20;2.90;99.90
5086;DHT22;4715;51.660;7.082;2023-03-08T15:23:43;2.90;99.90
5086;DHT22;4715;51.660;7.082;2023-03-08T15:26:09;2.90;99.90
5086;DHT22;4715;51.660;7.082;2023-03-08T15:28:32;2.90;99.90
5086;DHT22;4715;51.660;7.082;2023-03-08T15:30:54;2.90;99.90
5086;DHT22;4715;51.660;7.082;2023-03-08T15:33:16;2.90;99.90
5086;DHT22;4715;51.660;7.082;2023-03-08T15:35:39;2.90;99.90
5086;DHT22;4715;51.660;7.082;2023-03-08T15:38:01;2.90;99.90
5086;DHT22;4715;51.660;7.082;2023-03-08T15:40:25;2.90;99.90
5086;DHT22;4715;51.660;7.082;2023-03-08T15:42:47;2.90;99.90
5086;DHT22;4715;51.660;7.082;2023-03-08T15:45:10;2.90;99.90
5086;DHT22;4715;51.660;7.082;2023-03-08T15:47:33;2.90;99.90
5086;DHT22;4715;51.660;7.082;2023-03-08T15:49:54;2.90;99.90
5086;DHT22;4715;51.660;7.082;2023-03-08T15:52:18;2.90;99.90
5086;DHT22;4715;51.660;7.082;2023-03-08T15:54:39;2.90;99.90
5086;DHT22;4715;51.660;7.082;2023-03-08T15:57:06;2.90;99.90
5086;DHT22;4715;51.660;7.082;2023-03-08T15:59:28;2.90;99.90
5086;DHT22;4715;51.660;7.082;2023-03-08T16:01:50;2.90;99.90
5086;DHT22;4715;51.660;7.082;2023-03-08T16:04:12;2.90;99.90